Time;durP1;ratioP1;P1;durP2;ratioP2;P2;SDS_P1;SDS_P2;PMS_P1;PMS_P2;Temp;Humidity;BMP_temperature;BMP_pressure;BME280_temperature;BME280_humidity;BME280_pressure;Samples;Min_cycle;Max_cycle;Signal;HPM_P1;HPM_P2
2021/03/29 00:01:46;;;;;;;10.85;3.62;;;;;;;5.09;72.31;100369.73;1700815;83;21225;-69
2021/03/29 00:04:13;;;;;;;8.25;4.15;;;;;;;5.12;72.39;100372.28;1700564;83;21150;-70
2021/03/29 00:06:42;;;;;;;13.98;3.98;;;;;;;5.12;72.37;100371.43;1699634;83;21868;-70
2021/03/29 00:09:10;;;;;;;10.85;4.30;;;;;;;5.12;72.53;100374.87;1700638;82;21440;-70
2021/03/29 00:11:40;;;;;;;11.68;4.35;;;;;;;5.13;72.61;100371.42;1699812;83;21024;-70
2021/03/29 00:14:08;;;;;;;11.40;3.87;;;;;;;5.14;72.67;100378.30;1698985;84;21136;-69
2021/03/29 00:16:36;;;;;;;11.35;4.37;;;;;;;5.16;72.81;100371.38;1699789;82;21184;-70
2021/03/29 00:19:07;;;;;;;9.08;4.10;;;;;;;5.18;72.86;100370.48;1700745;84;21138;-70
2021/03/29 00:21:37;;;;;;;11.53;4.83;;;;;;;5.18;72.87;100373.08;1696759;83;21294;-70
2021/03/29 00:24:07;;;;;;;8.98;3.90;;;;;;;5.20;72.95;100371.33;1699466;82;21659;-70
2021/03/29 00:26:36;;;;;;;6.92;3.87;;;;;;;5.22;72.97;100377.34;1701652;83;21077;-69
2021/03/29 00:29:04;;;;;;;9.38;3.70;;;;;;;5.24;73.10;100365.24;1697134;83;21164;-71
2021/03/29 00:31:32;;;;;;;8.53;4.28;;;;;;;5.26;73.15;100364.31;1697251;83;21253;-71
2021/03/29 00:34:00;;;;;;;9.08;3.55;;;;;;;5.28;73.21;100369.48;1702356;82;21285;-70
2021/03/29 00:36:29;;;;;;;10.43;3.90;;;;;;;5.32;73.43;100363.36;1681959;82;21206;-70
2021/03/29 00:38:57;;;;;;;10.82;4.15;;;;;;;5.33;73.40;100367.68;1706863;83;21160;-70
2021/03/29 00:41:25;;;;;;;9.43;4.10;;;;;;;5.38;73.45;100369.77;1707650;82;21231;-70
2021/03/29 00:43:54;;;;;;;8.95;4.12;;;;;;;5.42;73.42;100366.67;1704765;82;21618;-70
2021/03/29 00:46:21;;;;;;;8.20;4.03;;;;;;;5.44;73.60;100368.37;1706949;82;21325;-70
2021/03/29 00:48:51;;;;;;;10.95;4.03;;;;;;;5.46;73.55;100374.39;1734029;81;21258;-70
2021/03/29 00:51:22;;;;;;;9.95;4.17;;;;;;;5.48;73.64;100362.24;1745597;81;21116;-70
2021/03/29 00:53:52;;;;;;;7.40;3.67;;;;;;;5.49;73.70;100364.39;1744661;81;21866;-70
2021/03/29 00:56:21;;;;;;;9.35;3.95;;;;;;;5.51;73.79;100369.96;1722841;81;21194;-70
2021/03/29 00:58:51;;;;;;;13.58;4.92;;;;;;;5.51;73.86;100367.38;1740827;81;21195;-70
2021/03/29 01:01:29;;;;;;;7.83;4.05;;;;;;;5.56;73.93;100369.45;1738735;81;21635;-71
2021/03/29 01:04:01;;;;;;;9.63;3.67;;;;;;;5.57;73.92;100369.89;1732229;81;21216;-70
2021/03/29 01:06:33;;;;;;;10.93;3.92;;;;;;;5.57;74.01;100362.12;1747830;81;21178;-70
2021/03/29 01:09:05;;;;;;;7.87;4.53;;;;;;;5.58;73.96;100363.81;1731739;81;21238;-70
2021/03/29 01:11:40;;;;;;;12.47;4.55;;;;;;;5.60;74.18;100356.88;1714696;82;21265;-71
2021/03/29 01:14:15;;;;;;;10.58;4.22;;;;;;;5.60;74.21;100365.95;1698737;83;21192;-70
2021/03/29 01:16:47;;;;;;;8.18;4.45;;;;;;;5.61;74.29;100361.17;1684750;83;21678;-71
2021/03/29 01:19:56;;;;;;;10.63;4.22;;;;;;;5.60;74.33;100358.59;1695178;83;21275;-70
2021/03/29 01:22:37;;;;;;;6.12;3.62;;;;;;;5.61;74.42;100366.35;1676092;84;21204;-70
2021/03/29 01:25:24;;;;;;;5.75;4.20;;;;;;;5.63;74.49;100353.39;1737662;81;21241;-70
2021/03/29 01:28:05;;;;;;;10.10;4.37;;;;;;;5.61;74.53;100354.70;1683715;83;21257;-70
2021/03/29 01:30:36;;;;;;;7.12;3.95;;;;;;;5.63;74.63;100362.87;1684115;84;21213;-70
2021/03/29 01:33:07;;;;;;;9.45;3.62;;;;;;;5.63;74.73;100355.09;1680310;84;21591;-70
2021/03/29 01:35:39;;;;;;;6.97;4.00;;;;;;;5.61;74.81;100355.98;1678348;84;21263;-70
2021/03/29 01:38:07;;;;;;;7.70;4.00;;;;;;;5.63;74.81;100349.91;1673857;84;21235;-70
2021/03/29 01:40:38;;;;;;;6.12;3.90;;;;;;;5.63;74.88;100352.50;1679771;83;21659;-70
2021/03/29 01:43:07;;;;;;;6.65;3.55;;;;;;;5.65;74.96;100353.34;1688900;84;21266;-70
2021/03/29 01:45:35;;;;;;;7.45;3.80;;;;;;;5.67;74.99;100354.18;1675574;84;21270;-70
2021/03/29 01:48:05;;;;;;;6.78;3.92;;;;;;;5.70;75.05;100353.68;1687534;84;21182;-70
2021/03/29 01:50:36;;;;;;;6.78;4.10;;;;;;;5.73;75.09;100357.95;1677828;83;21395;-70
2021/03/29 01:53:06;;;;;;;9.43;4.33;;;;;;;5.74;75.20;100358.36;1681036;84;21274;-70
2021/03/29 01:55:34;;;;;;;10.03;3.92;;;;;;;5.75;75.22;100353.16;1683211;83;22443;-70
2021/03/29 01:58:04;;;;;;;5.92;3.67;;;;;;;5.75;75.27;100353.16;1673980;84;21216;-70
2021/03/29 02:00:41;;;;;;;7.87;3.92;;;;;;;5.74;75.36;100346.28;1673998;84;21269;-70
2021/03/29 02:03:10;;;;;;;5.55;3.17;;;;;;;5.74;75.40;100350.58;1680936;84;21235;-70
2021/03/29 02:05:41;;;;;;;7.15;4.10;;;;;;;5.75;75.56;100352.31;1699856;82;21228;-70
2021/03/29 02:08:09;;;;;;;5.85;3.67;;;;;;;5.75;75.55;100354.91;1709874;82;22331;-70
2021/03/29 02:10:39;;;;;;;7.87;3.58;;;;;;;5.77;75.61;100358.30;1750642;81;21100;-70
2021/03/29 02:13:19;;;;;;;6.30;4.33;;;;;;;5.78;75.62;100352.26;1746216;81;21175;-70
2021/03/29 02:15:51;;;;;;;8.00;4.10;;;;;;;5.80;75.66;100353.09;1750930;81;21343;-70
2021/03/29 02:18:22;;;;;;;11.60;3.83;;;;;;;5.82;75.77;100351.31;1741631;81;21261;-70
2021/03/29 02:20:50;;;;;;;6.47;3.85;;;;;;;5.81;75.79;100344.42;1746078;81;21056;-70
2021/03/29 02:23:21;;;;;;;6.47;4.05;;;;;;;5.83;75.83;100348.70;1754443;81;21119;-71
2021/03/29 02:25:50;;;;;;;7.20;3.95;;;;;;;5.83;75.92;100353.04;1758209;81;21131;-70
2021/03/29 02:28:17;;;;;;;7.42;3.27;;;;;;;5.83;75.97;100358.22;1754266;81;21215;-70
2021/03/29 02:30:46;;;;;;;;;;;;;;;5.83;76.07;100351.30;1722969;81;21571;-70
2021/03/29 02:33:15;;;;;;;5.12;3.72;;;;;;;5.83;76.25;100350.45;1723804;81;20310;-70
2021/03/29 02:35:44;;;;;;;8.25;3.95;;;;;;;5.82;76.19;100347.42;1734950;81;21229;-70
2021/03/29 02:40:55;;;;;;;9.80;4.78;;;;;;;5.88;76.41;100350.34;1828089;77;23412;-69
2021/03/29 02:43:28;;;;;;;8.23;3.92;;;;;;;5.83;76.36;100359.07;1796274;77;21084;-70
2021/03/29 02:45:59;;;;;;;7.40;4.12;;;;;;;5.86;76.40;100354.27;1795329;78;21582;-69
2021/03/29 02:48:32;;;;;;;6.70;3.27;;;;;;;5.86;76.62;100360.75;1802441;78;21093;-70
2021/03/29 02:50:59;;;;;;;5.20;3.50;;;;;;;5.89;76.54;100351.63;1798511;77;21004;-70
2021/03/29 02:53:29;;;;;;;;;;;;;;;5.89;76.57;100351.63;1784151;78;21221;-69
2021/03/29 02:56:01;;;;;;;6.53;3.72;;;;;;;5.88;76.75;100355.11;1799408;77;20682;-70
2021/03/29 02:58:30;;;;;;;7.50;3.80;;;;;;;5.87;76.69;100355.13;1803287;78;21202;-69
2021/03/29 03:00:58;;;;;;;4.95;3.45;;;;;;;5.91;76.77;100361.53;1803094;78;21011;-69
2021/03/29 03:03:26;;;;;;;5.60;3.60;;;;;;;5.90;76.76;100353.77;1799340;78;21011;-69
2021/03/29 03:05:55;;;;;;;4.65;3.67;;;;;;;5.90;76.84;100359.80;1799159;78;21206;-69
2021/03/29 03:08:23;;;;;;;5.53;4.05;;;;;;;5.92;76.91;100363.23;1799769;78;21215;-69
2021/03/29 03:10:50;;;;;;;7.03;3.72;;;;;;;5.91;76.95;100365.84;1796111;78;21187;-69
2021/03/29 03:13:18;;;;;;;3.42;2.77;;;;;;;5.90;77.04;100364.98;1796731;78;27755;-69
2021/03/29 03:15:46;;;;;;;4.65;3.33;;;;;;;5.90;77.05;100361.10;1794419;78;21576;-69
2021/03/29 03:18:13;;;;;;;5.60;3.47;;;;;;;5.91;77.09;100361.53;1797510;78;21084;-69
2021/03/29 03:20:40;;;;;;;5.70;3.20;;;;;;;5.94;77.18;100366.69;1797104;78;21164;-69
2021/03/29 03:23:17;;;;;;;4.83;3.22;;;;;;;5.95;77.19;100367.54;1801991;77;22114;-70
2021/03/29 03:25:49;;;;;;;3.53;3.03;;;;;;;5.94;77.31;100369.28;1797575;78;21700;-70
2021/03/29 03:28:22;;;;;;;4.25;3.08;;;;;;;5.94;77.27;100371.88;1797358;78;21140;-70
2021/03/29 03:30:53;;;;;;;4.25;3.55;;;;;;;5.97;77.38;100371.81;1798557;78;21185;-70
2021/03/29 03:33:25;;;;;;;6.17;3.72;;;;;;;5.97;77.43;100369.22;1800548;78;21240;-70
2021/03/29 03:35:53;;;;;;;4.90;3.30;;;;;;;5.98;77.45;100374.81;1796331;77;21680;-70
2021/03/29 03:38:26;;;;;;;6.53;3.30;;;;;;;5.97;77.65;100365.34;1777281;78;21234;-70
2021/03/29 03:41:09;;;;;;;3.70;3.10;;;;;;;5.97;77.51;100364.04;1784019;78;21233;-70
2021/03/29 03:43:44;;;;;;;3.90;3.12;;;;;;;6.02;77.63;100376.48;1759150;79;21220;-70
2021/03/29 03:46:38;;;;;;;5.53;3.58;;;;;;;6.02;77.67;100372.59;1790940;79;21149;-69
2021/03/29 03:49:11;;;;;;;4.90;3.47;;;;;;;6.04;77.67;100373.40;1613483;87;21247;-70
2021/03/29 03:51:38;;;;;;;5.78;3.37;;;;;;;6.10;77.74;100366.40;1604121;87;21312;-70
2021/03/29 03:54:09;;;;;;;4.85;3.60;;;;;;;6.11;77.77;100373.31;1615139;87;21613;-70
2021/03/29 03:56:37;;;;;;;4.90;3.27;;;;;;;6.11;77.80;100369.42;1616701;87;21329;-69
2021/03/29 03:59:06;;;;;;;3.27;2.92;;;;;;;6.12;77.94;100364.64;1613370;87;21191;-69
2021/03/29 04:01:58;;;;;;;3.02;2.70;;;;;;;6.11;77.95;100361.20;1617102;87;21350;-69
2021/03/29 04:04:25;;;;;;;5.20;3.05;;;;;;;6.13;78.05;100359.86;1617292;87;21295;-69
2021/03/29 04:06:52;;;;;;;3.50;3.02;;;;;;;6.16;78.07;100366.28;1617605;87;21243;-69
2021/03/29 04:09:22;;;;;;;4.03;3.00;;;;;;;6.17;78.04;100364.12;1593920;87;21731;-69
2021/03/29 04:11:51;;;;;;;4.67;3.15;;;;;;;6.18;78.09;100356.73;1616373;87;21283;-70
2021/03/29 04:14:17;;;;;;;6.95;3.62;;;;;;;6.16;78.09;100359.80;1614545;87;22449;-70
2021/03/29 04:16:44;;;;;;;5.03;3.98;;;;;;;6.14;78.12;100358.99;1613871;87;21330;-69
2021/03/29 04:19:11;;;;;;;3.95;3.20;;;;;;;6.15;78.28;100364.58;1614790;87;21626;-70
2021/03/29 04:21:38;;;;;;;4.53;3.70;;;;;;;6.16;78.26;100361.97;1617321;87;21711;-70
2021/03/29 04:24:07;;;;;;;5.95;3.98;;;;;;;6.18;78.33;100364.52;1615515;87;21226;-70
2021/03/29 04:26:33;;;;;;;5.40;3.77;;;;;;;6.18;78.36;100366.66;1616489;87;22401;-69
2021/03/29 04:29:00;;;;;;;4.95;3.85;;;;;;;6.20;78.36;100367.95;1615187;87;21230;-70
2021/03/29 04:31:27;;;;;;;4.45;3.67;;;;;;;6.21;78.39;100367.05;1614200;87;21143;-70
2021/03/29 04:33:54;;;;;;;5.75;4.00;;;;;;;6.23;78.43;100371.77;1615737;87;21187;-70
2021/03/29 04:36:21;;;;;;;6.17;4.12;;;;;;;6.23;78.51;100369.18;1615438;87;21226;-70
2021/03/29 04:38:49;;;;;;;4.90;3.58;;;;;;;6.24;78.52;100365.69;1616832;87;21286;-69
2021/03/29 04:41:16;;;;;;;4.67;4.03;;;;;;;6.24;78.60;100368.28;1616575;87;28488;-70
2021/03/29 04:43:43;;;;;;;5.70;4.03;;;;;;;6.24;78.64;100356.61;1618589;87;21673;-70
2021/03/29 04:46:10;;;;;;;6.42;4.47;;;;;;;6.23;78.64;100366.59;1616523;87;21188;-70
2021/03/29 04:48:37;;;;;;;6.30;4.58;;;;;;;6.23;78.69;100362.70;1635708;86;21222;-70
2021/03/29 04:51:04;;;;;;;8.00;4.58;;;;;;;6.23;78.78;100360.11;1643737;86;21248;-70
2021/03/29 04:53:31;;;;;;;9.13;5.03;;;;;;;6.23;78.85;100358.81;1641012;86;21639;-70
2021/03/29 04:55:58;;;;;;;8.55;4.92;;;;;;;6.24;78.87;100360.50;1626737;86;21226;-69
2021/03/29 04:58:25;;;;;;;6.65;5.30;;;;;;;6.26;78.89;100364.78;1640313;86;21231;-70
2021/03/29 05:00:53;;;;;;;6.60;4.53;;;;;;;6.30;78.97;100361.67;1635622;86;21160;-70
2021/03/29 05:03:20;;;;;;;7.67;5.10;;;;;;;6.34;78.97;100359.90;1642493;86;21628;-70
2021/03/29 05:05:47;;;;;;;8.45;6.30;;;;;;;6.34;79.01;100358.16;1637173;86;21641;-70
2021/03/29 05:08:14;;;;;;;6.55;5.90;;;;;;;6.35;79.04;100353.37;1641835;86;21223;-70
2021/03/29 05:10:41;;;;;;;7.12;6.25;;;;;;;6.37;79.13;100350.31;1636567;86;21228;-70
2021/03/29 05:13:09;;;;;;;7.62;6.58;;;;;;;6.39;79.19;100351.14;1638789;86;21693;-70
2021/03/29 05:15:36;;;;;;;10.43;7.15;;;;;;;6.39;79.12;100348.55;1626266;86;21231;-70
2021/03/29 05:18:03;;;;;;;7.60;6.42;;;;;;;6.42;79.21;100357.56;1642159;86;21218;-70
2021/03/29 05:20:30;;;;;;;11.83;6.80;;;;;;;6.43;79.15;100351.48;1640036;86;21223;-74
2021/03/29 05:22:57;;;;;;;10.88;7.03;;;;;;;6.44;79.23;100355.80;1637025;86;21855;-74
2021/03/29 05:25:24;;;;;;;8.35;6.92;;;;;;;6.45;79.29;100362.69;1634680;86;21286;-73
2021/03/29 05:27:51;;;;;;;9.93;7.40;;;;;;;6.46;79.33;100357.89;1634099;86;21251;-74
2021/03/29 05:30:19;;;;;;;10.40;6.87;;;;;;;6.49;79.42;100363.47;1635616;86;21274;-74
2021/03/29 05:32:45;;;;;;;12.95;7.62;;;;;;;6.51;79.36;100366.89;1635821;86;21219;-74
2021/03/29 05:35:12;;;;;;;9.43;6.78;;;;;;;6.55;79.44;100363.78;1633306;86;21176;-73
2021/03/29 05:37:41;;;;;;;17.73;9.58;;;;;;;6.57;79.52;100369.81;1634023;86;21191;-74
2021/03/29 05:40:10;;;;;;;13.83;10.03;;;;;;;6.57;79.46;100364.17;1639073;86;21690;-74
2021/03/29 05:42:38;;;;;;;22.67;13.20;;;;;;;6.60;79.58;100367.15;1636662;86;21669;-72
2021/03/29 05:45:11;;;;;;;18.57;12.43;;;;;;;6.62;79.67;100362.34;1640331;86;21271;-72
2021/03/29 05:50:18;;;;;;;16.90;10.45;;;;;;;6.69;79.64;100372.14;1826608;77;22872;-73
2021/03/29 05:52:45;;;;;;;14.07;9.00;;;;;;;6.66;79.70;100379.98;1799001;78;21018;-72
2021/03/29 06:00:42;;;;;;;10.07;7.30;;;;;;;6.68;79.85;100380.82;1745011;80;21070;-72
2021/03/29 06:03:37;;;;;;;9.28;7.30;;;;;;;6.71;79.85;100379.45;1747465;80;21314;-72
2021/03/29 06:06:20;;;;;;;12.15;8.18;;;;;;;6.75;79.91;100387.61;1768167;79;21023;-73
2021/03/29 06:08:52;;;;;;;13.28;8.13;;;;;;;6.82;79.87;100390.91;1763263;79;21065;-71
2021/03/29 06:11:33;;;;;;;13.50;7.95;;;;;;;6.82;79.85;100386.57;1761656;80;21029;-73
2021/03/29 06:14:19;;;;;;;12.30;8.50;;;;;;;6.86;79.91;100384.76;1766888;79;21017;-72
2021/03/29 06:17:15;;;;;;;11.30;8.30;;;;;;;6.88;79.91;100396.82;1747194;80;21201;-72
2021/03/29 06:19:57;;;;;;;9.58;7.22;;;;;;;6.90;79.90;100395.05;1734915;80;21862;-72
2021/03/29 06:22:31;;;;;;;11.00;7.42;;;;;;;6.94;79.96;100395.39;1773437;79;21175;-72
2021/03/29 06:25:12;;;;;;;8.73;6.40;;;;;;;6.97;79.99;100381.94;1770464;80;21266;-72
2021/03/29 06:30:30;;;;;;;9.75;6.10;;;;;;;7.12;80.02;100392.84;1826654;76;22479;-72
2021/03/29 06:33:17;;;;;;;10.98;6.28;;;;;;;7.11;79.98;100387.67;1803288;77;21078;-72
2021/03/29 06:35:55;;;;;;;11.25;6.80;;;;;;;7.16;79.98;100391.03;1735514;80;22037;-73
2021/03/29 06:38:36;;;;;;;10.80;7.12;;;;;;;7.24;80.10;100393.01;1737202;81;21165;-72
2021/03/29 06:41:09;;;;;;;15.15;8.93;;;;;;;7.28;79.98;100397.26;1766952;79;21055;-73
2021/03/29 06:43:41;;;;;;;12.00;6.60;;;;;;;7.33;79.97;100399.28;1764640;79;21168;-73
2021/03/29 06:46:24;;;;;;;8.45;5.80;;;;;;;7.32;79.98;100400.19;1770247;79;21749;-73
2021/03/29 06:48:54;;;;;;;8.90;5.70;;;;;;;7.38;80.11;100407.83;1733562;82;21254;-72
2021/03/29 06:51:26;;;;;;;9.03;6.53;;;;;;;7.39;80.02;100406.96;1735402;80;21013;-72
2021/03/29 06:54:10;;;;;;;8.28;6.15;;;;;;;7.47;80.13;100403.31;1733682;82;21218;-73
2021/03/29 06:56:41;;;;;;;10.18;5.80;;;;;;;7.55;80.16;100402.23;1733215;82;21183;-73
2021/03/29 06:59:34;;;;;;;8.40;5.70;;;;;;;7.59;80.07;100403.03;1734313;82;21238;-73
2021/03/29 07:02:06;;;;;;;8.73;5.80;;;;;;;7.63;80.04;100408.55;1739169;80;21206;-74
2021/03/29 07:04:32;;;;;;;12.18;5.83;;;;;;;7.66;80.06;100401.98;1741992;80;21060;-73
2021/03/29 07:07:02;;;;;;;9.48;6.08;;;;;;;7.73;80.14;100404.85;1742847;81;21225;-73
2021/03/29 07:09:36;;;;;;;8.23;4.62;;;;;;;7.76;79.97;100403.47;1736873;81;21208;-72
2021/03/29 07:12:06;;;;;;;10.40;6.40;;;;;;;7.77;80.00;100405.17;1741839;81;21226;-72
2021/03/29 07:14:34;;;;;;;11.57;7.15;;;;;;;7.78;80.10;100409.47;1739484;80;21243;-73
2021/03/29 07:17:04;;;;;;;9.15;5.45;;;;;;;7.85;80.12;100410.19;1739239;80;21247;-73
2021/03/29 07:19:32;;;;;;;7.65;5.42;;;;;;;7.84;80.01;100409.34;1715878;81;21849;-72
2021/03/29 07:22:00;;;;;;;12.28;8.58;;;;;;;7.87;80.11;100402.33;1697271;82;21247;-72
2021/03/29 07:24:27;;;;;;;11.00;7.03;;;;;;;7.94;80.25;100413.00;1687907;82;21191;-73
2021/03/29 07:27:01;;;;;;;9.98;6.83;;;;;;;8.01;80.13;100410.63;1732310;81;21210;-73
2021/03/29 07:29:32;;;;;;;8.58;5.50;;;;;;;8.03;80.08;100411.45;1734325;82;21663;-73
2021/03/29 07:32:05;;;;;;;9.33;5.53;;;;;;;8.06;80.14;100412.67;1696711;82;21638;-74
2021/03/29 07:34:49;;;;;;;9.48;5.45;;;;;;;8.17;80.24;100409.34;1825198;77;22429;-73
2021/03/29 07:39:23;;;;;;;7.75;4.62;;;;;;;8.25;80.12;100404.79;1826123;77;22716;-73
2021/03/29 07:42:12;;;;;;;8.33;5.20;;;;;;;8.21;80.05;100410.14;1799479;78;21032;-74
2021/03/29 07:45:02;;;;;;;10.85;4.85;;;;;;;8.21;80.12;100409.69;1802637;77;22168;-73
2021/03/29 07:47:43;;;;;;;6.15;4.50;;;;;;;8.24;80.15;100414.80;1802389;78;21084;-72
2021/03/29 07:50:17;;;;;;;5.53;4.42;;;;;;;8.24;80.14;100416.10;1801418;78;21594;-74
2021/03/29 07:52:51;;;;;;;7.08;5.10;;;;;;;8.29;80.21;100422.05;1797362;78;21218;-73
2021/03/29 07:55:38;;;;;;;7.55;4.60;;;;;;;8.39;80.36;100421.82;1799110;78;21029;-73
2021/03/29 07:58:09;;;;;;;7.70;4.53;;;;;;;8.47;80.29;100422.47;1795585;78;21189;-69
2021/03/29 08:00:48;;;;;;;7.97;5.90;;;;;;;8.56;80.18;100420.05;1798237;78;21079;-73
2021/03/29 08:03:24;;;;;;;8.03;5.58;;;;;;;8.59;80.15;100421.27;1798299;77;21020;-73
2021/03/29 08:05:53;;;;;;;6.62;5.03;;;;;;;8.68;80.32;100429.69;1803015;78;21160;-73
2021/03/29 08:08:33;;;;;;;10.00;5.53;;;;;;;8.71;80.15;100432.20;1797336;78;21163;-73
2021/03/29 08:11:05;;;;;;;7.92;4.22;;;;;;;8.78;80.26;100428.13;1801808;78;22176;-74
2021/03/29 08:16:41;;;;;;;8.53;5.05;;;;;;;8.81;80.07;100417.16;1781693;75;28028;-73
2021/03/29 08:22:09;;;;;;;5.53;3.83;;;;;;;9.03;80.15;100430.41;1829095;77;22408;-74
2021/03/29 08:24:46;;;;;;;7.28;4.75;;;;;;;9.06;80.10;100431.62;1798237;78;21052;-74
2021/03/29 08:27:28;;;;;;;8.15;5.03;;;;;;;9.14;80.25;100429.64;1804943;77;21193;-74
2021/03/29 08:30:15;;;;;;;8.08;4.90;;;;;;;9.28;80.19;100436.20;1802944;77;21115;-74
2021/03/29 08:32:43;;;;;;;9.10;5.12;;;;;;;9.32;80.10;100437.80;1797357;78;20998;-74
2021/03/29 08:35:22;;;;;;;5.08;4.17;;;;;;;9.35;79.92;100435.09;1748923;80;21029;-74
2021/03/29 08:37:56;;;;;;;6.75;4.40;;;;;;;9.34;79.97;100436.00;1740216;81;21203;-74
2021/03/29 08:40:28;;;;;;;4.95;4.30;;;;;;;9.39;80.16;100425.84;1734015;81;21210;-73
2021/03/29 08:43:03;;;;;;;18.98;5.70;;;;;;;9.49;79.91;100435.52;1738230;81;21030;-74
2021/03/29 08:45:34;;;;;;;8.35;5.33;;;;;;;9.52;80.04;100430.66;1733798;81;21064;-74
2021/03/29 08:48:05;;;;;;;6.30;3.33;;;;;;;9.59;79.98;100431.72;1765064;80;21156;-74
2021/03/29 08:50:37;;;;;;;6.80;4.53;;;;;;;9.68;79.94;100425.81;1764993;79;21550;-74
2021/03/29 08:53:13;;;;;;;6.12;4.75;;;;;;;9.71;79.90;100425.71;1731423;81;21674;-74
2021/03/29 08:55:44;;;;;;;7.58;4.50;;;;;;;9.72;79.78;100420.46;1738386;81;21914;-74
2021/03/29 08:58:17;;;;;;;11.63;4.00;;;;;;;9.75;79.80;100419.52;1739662;80;21151;-74
2021/03/29 09:00:45;;;;;;;7.20;4.00;;;;;;;9.81;79.88;100419.30;1768925;80;21140;-74
2021/03/29 09:03:39;;;;;;;5.80;4.20;;;;;;;9.80;79.69;100420.19;1769378;79;26533;-69
2021/03/29 09:06:15;;;;;;;6.10;3.80;;;;;;;9.82;79.78;100423.61;1624818;87;21246;-75
2021/03/29 09:08:51;;;;;;;5.35;4.58;;;;;;;9.86;79.84;100416.95;1628767;86;21854;-75
2021/03/29 09:11:54;;;;;;;6.90;4.83;;;;;;;9.91;79.73;100416.77;1626462;86;21259;-75
2021/03/29 09:14:31;;;;;;;6.58;4.65;;;;;;;10.02;79.86;100421.17;1628817;86;21343;-75
2021/03/29 09:17:15;;;;;;;6.37;4.60;;;;;;;10.07;79.60;100419.27;1629353;86;21757;-75
2021/03/29 09:20:50;;;;;;;7.70;5.33;;;;;;;10.09;79.70;100423.98;1872855;74;25188;-75
2021/03/29 09:23:36;;;;;;;;;;;;;;;10.14;79.85;100421.66;1855088;75;21206;-75
2021/03/29 09:26:34;;;;;;;7.28;4.90;;;;;;;10.25;79.67;100414.31;1851581;75;20288;-74
2021/03/29 09:32:41;;;;;;;8.13;5.42;;;;;;;10.39;79.72;100404.30;1802288;77;25756;-74
2021/03/29 09:35:33;;;;;;;12.50;9.38;;;;;;;10.39;79.72;100404.30;1774173;80;21630;-75
2021/03/29 09:38:15;;;;;;;9.93;5.83;;;;;;;10.51;79.63;100412.98;1769367;80;21192;-75
2021/03/29 09:40:52;;;;;;;6.40;5.17;;;;;;;10.61;79.32;100412.64;1748573;80;21199;-75
2021/03/29 09:43:51;;;;;;;10.53;6.67;;;;;;;10.74;79.55;100402.16;1738469;80;21182;-75
2021/03/29 09:47:20;;;;;;;7.83;5.53;;;;;;;10.73;79.10;100401.77;1801129;77;25320;-74
2021/03/29 09:50:08;;;;;;;6.83;4.83;;;;;;;10.71;79.12;100407.50;1755845;79;21105;-74
2021/03/29 09:53:00;;;;;;;9.28;5.35;;;;;;;10.74;79.21;100403.46;1752155;79;22375;-75
2021/03/29 09:55:58;;;;;;;9.15;5.65;;;;;;;10.81;79.16;100398.42;1756742;79;21649;-75
2021/03/29 09:58:50;;;;;;;10.85;6.60;;;;;;;10.93;79.36;100403.17;1757999;79;21516;-75
2021/03/29 10:01:36;;;;;;;8.55;5.42;;;;;;;11.07;79.16;100404.41;1755829;79;21025;-75
2021/03/29 10:07:23;;;;;;;7.30;5.10;;;;;;;11.20;79.07;100405.63;1837724;75;25757;-75
2021/03/29 10:10:12;;;;;;;9.90;5.65;;;;;;;11.17;78.93;100407.05;1797376;77;21084;-76
2021/03/29 10:12:53;;;;;;;9.33;5.08;;;;;;;11.01;78.91;100388.94;1748862;80;21056;-76
2021/03/29 10:15:22;;;;;;;11.50;6.47;;;;;;;11.01;78.91;100388.94;1719618;80;21173;-72
2021/03/29 10:18:11;;;;;;;10.13;6.72;;;;;;;10.86;78.75;100371.64;1745957;80;21568;-73
2021/03/29 10:20:49;;;;;;;7.05;4.78;;;;;;;11.02;78.98;100410.27;1726049;79;21105;-73
2021/03/29 10:23:29;;;;;;;7.33;4.65;;;;;;;11.05;78.85;100414.06;1741816;80;21082;-74
2021/03/29 10:26:34;;;;;;;7.30;4.70;;;;;;;11.05;78.95;100406.23;1745346;81;21283;-78
2021/03/29 10:29:04;;;;;;;8.40;5.25;;;;;;;11.03;78.81;100408.03;1741827;80;22379;-78
2021/03/29 10:31:34;;;;;;;10.93;6.33;;;;;;;11.04;79.00;100407.99;1741823;81;21700;-76
2021/03/29 10:34:02;;;;;;;9.48;5.85;;;;;;;11.02;78.85;100412.88;1749756;80;22449;-77
2021/03/29 10:36:31;;;;;;;9.43;5.70;;;;;;;10.93;78.73;100409.70;1723623;81;21585;-79
2021/03/29 10:38:59;;;;;;;11.73;5.97;;;;;;;10.96;79.04;100418.73;1749213;80;21337;-79
2021/03/29 10:41:28;;;;;;;7.40;5.10;;;;;;;10.91;78.69;100419.35;1720470;81;21227;-84
2021/03/29 10:43:55;;;;;;;;;;;;;;;10.87;78.82;100419.08;1727120;81;21159;-80
2021/03/29 10:46:23;;;;;;;9.25;4.25;;;;;;;10.83;78.89;100414.87;1747574;81;20376;-81
2021/03/29 10:48:50;;;;;;;8.30;4.87;;;;;;;10.82;78.94;100421.01;1746030;80;21145;-84
2021/03/29 10:51:17;;;;;;;9.60;4.15;;;;;;;10.79;78.85;100427.66;1747645;80;21253;-80
2021/03/29 10:53:44;;;;;;;6.50;4.33;;;;;;;10.80;78.73;100420.20;1724907;81;21214;-80
2021/03/29 10:56:11;;;;;;;6.58;4.62;;;;;;;10.64;78.40;100434.73;1721692;81;21017;-83
2021/03/29 10:58:38;;;;;;;23.77;6.05;;;;;;;10.57;78.70;100428.04;1741908;81;21195;-82
2021/03/29 11:01:05;;;;;;;8.15;4.47;;;;;;;10.51;78.69;100437.80;1731400;81;21248;-82
2021/03/29 11:03:32;;;;;;;7.35;4.50;;;;;;;10.43;78.60;100439.82;1743159;80;22145;-83
2021/03/29 11:05:59;;;;;;;7.92;5.03;;;;;;;10.30;78.57;100443.75;1744497;81;21194;-84
2021/03/29 11:08:27;;;;;;;7.12;4.67;;;;;;;10.16;78.68;100440.73;1745851;80;21192;-81
2021/03/29 11:10:54;;;;;;;;;;;;;;;10.09;78.89;100446.17;1744025;80;21679;-81
2021/03/29 11:13:21;;;;;;;9.38;5.55;;;;;;;10.03;78.87;100448.99;1742999;81;20953;-81
2021/03/29 11:15:48;;;;;;;9.83;5.12;;;;;;;9.93;78.82;100447.58;1726881;81;22202;-76
2021/03/29 11:18:15;;;;;;;8.85;4.33;;;;;;;9.83;78.72;100447.47;1719501;80;21191;-76
2021/03/29 11:20:42;;;;;;;8.78;3.98;;;;;;;9.72;78.70;100448.27;1749311;80;21251;-76
2021/03/29 11:23:09;;;;;;;6.58;4.40;;;;;;;9.60;78.81;100449.52;1747389;80;21163;-76
2021/03/29 11:25:36;;;;;;;9.00;4.03;;;;;;;9.55;78.85;100451.41;1752828;80;21211;-76
2021/03/29 11:28:04;;;;;;;9.05;4.15;;;;;;;9.50;78.94;100446.36;1745879;80;22652;-76
2021/03/29 11:30:31;;;;;;;13.35;7.40;;;;;;;9.49;78.96;100456.82;1745850;80;21267;-77
2021/03/29 11:32:59;;;;;;;15.90;9.40;;;;;;;9.48;78.97;100455.98;1751743;80;21669;-79
2021/03/29 11:35:26;;;;;;;10.35;4.70;;;;;;;9.51;79.11;100455.88;1744108;81;21156;-76
2021/03/29 11:37:53;;;;;;;15.48;4.67;;;;;;;9.53;78.98;100447.56;1743271;80;21668;-76
2021/03/29 11:40:20;;;;;;;23.05;6.42;;;;;;;9.58;78.96;100446.98;1722537;82;21251;-75
2021/03/29 11:42:48;;;;;;;10.45;6.08;;;;;;;9.62;78.91;100444.66;1744502;80;21230;-75
2021/03/29 11:45:15;;;;;;;12.50;6.90;;;;;;;9.66;78.97;100438.04;1749795;80;21140;-76
2021/03/29 11:47:42;;;;;;;;;;;;;;;9.61;78.77;100441.66;1747415;81;21103;-76
2021/03/29 11:50:11;;;;;;;11.45;7.67;;;;;;;9.62;78.89;100442.51;1742717;81;20437;-76
2021/03/29 11:52:39;;;;;;;17.02;8.75;;;;;;;9.62;78.88;100440.75;1724211;82;21228;-75
2021/03/29 11:55:07;;;;;;;;;;;;;;;9.56;78.78;100443.55;1726758;81;21200;-76
2021/03/29 11:57:35;;;;;;;5.87;3.47;;;;;;;9.55;78.95;100438.38;1730610;81;20227;-79
2021/03/29 12:00:07;;;;;;;8.28;3.75;;;;;;;9.55;78.90;100440.56;1729958;81;21209;-75
2021/03/29 12:02:38;;;;;;;7.97;4.00;;;;;;;9.50;78.82;100443.75;1736958;81;21243;-76
2021/03/29 12:07:48;;;;;;;6.22;3.90;;;;;;;9.39;79.00;100448.45;1705954;82;21188;-75
2021/03/29 12:12:58;;;;;;;5.95;3.85;;;;;;;9.49;79.08;100439.42;1711479;82;21144;-76
2021/03/29 12:15:25;;;;;;;8.38;3.83;;;;;;;9.48;79.02;100436.87;1711967;82;21598;-76
2021/03/29 12:17:52;;;;;;;7.30;4.42;;;;;;;9.48;78.94;100432.52;1707292;82;21202;-76
2021/03/29 12:20:20;;;;;;;10.00;3.98;;;;;;;9.46;78.97;100427.79;1708795;82;21168;-76
2021/03/29 12:22:48;;;;;;;6.72;4.00;;;;;;;9.46;79.03;100426.48;1679910;84;21174;-75
2021/03/29 12:25:19;;;;;;;6.65;4.10;;;;;;;9.46;79.07;100427.79;1720668;81;21276;-75
2021/03/29 12:27:48;;;;;;;6.25;3.47;;;;;;;9.47;79.06;100427.37;1722168;82;22426;-76
2021/03/29 12:30:18;;;;;;;6.87;4.08;;;;;;;9.56;79.12;100426.61;1724719;81;21183;-76
2021/03/29 12:32:46;;;;;;;7.12;4.85;;;;;;;9.66;79.02;100426.31;1723650;81;21675;-75